sensor_id;sensor_type;location;lat;lon;timestamp;temperature;humidity
17599;DHT22;8918;52.092;5.232;2023-06-22T00:01:48;19.90;99.90
17599;DHT22;8918;52.092;5.232;2023-06-22T00:04:14;19.90;99.90
17599;DHT22;8918;52.092;5.232;2023-06-22T00:06:39;19.90;99.90
17599;DHT22;8918;52.092;5.232;2023-06-22T00:09:05;19.80;99.90
17599;DHT22;8918;52.092;5.232;2023-06-22T00:11:33;19.80;99.90
17599;DHT22;8918;52.092;5.232;2023-06-22T00:14:01;19.80;99.90
17599;DHT22;8918;52.092;5.232;2023-06-22T00:16:27;19.70;99.90
17599;DHT22;8918;52.092;5.232;2023-06-22T00:18:53;19.70;99.90
17599;DHT22;8918;52.092;5.232;2023-06-22T00:21:18;19.70;99.90
17599;DHT22;8918;52.092;5.232;2023-06-22T00:23:46;19.70;99.90
17599;DHT22;8918;52.092;5.232;2023-06-22T00:26:11;19.70;99.90
17599;DHT22;8918;52.092;5.232;2023-06-22T00:28:37;19.70;99.90
17599;DHT22;8918;52.092;5.232;2023-06-22T00:31:02;19.70;99.90
17599;DHT22;8918;52.092;5.232;2023-06-22T00:33:28;19.60;99.90
17599;DHT22;8918;52.092;5.232;2023-06-22T00:35:54;19.60;99.90
17599;DHT22;8918;52.092;5.232;2023-06-22T00:38:20;19.50;99.90
17599;DHT22;8918;52.092;5.232;2023-06-22T00:40:46;19.50;99.90
17599;DHT22;8918;52.092;5.232;2023-06-22T00:43:11;19.50;99.90
17599;DHT22;8918;52.092;5.232;2023-06-22T00:45:38;19.40;99.90
17599;DHT22;8918;52.092;5.232;2023-06-22T00:48:05;19.40;99.90
17599;DHT22;8918;52.092;5.232;2023-06-22T00:50:32;19.40;99.90
17599;DHT22;8918;52.092;5.232;2023-06-22T00:53:01;19.40;99.90
17599;DHT22;8918;52.092;5.232;2023-06-22T00:55:42;19.30;99.90
17599;DHT22;8918;52.092;5.232;2023-06-22T00:58:09;19.20;99.90
17599;DHT22;8918;52.092;5.232;2023-06-22T01:00:37;19.20;99.90
17599;DHT22;8918;52.092;5.232;2023-06-22T01:03:03;19.20;99.90
17599;DHT22;8918;52.092;5.232;2023-06-22T01:05:31;19.20;99.90
17599;DHT22;8918;52.092;5.232;2023-06-22T01:16:02;19.00;99.90
17599;DHT22;8918;52.092;5.232;2023-06-22T01:18:31;18.90;99.90
17599;DHT22;8918;52.092;5.232;2023-06-22T01:20:58;18.80;99.90
17599;DHT22;8918;52.092;5.232;2023-06-22T01:29:05;18.70;99.90
17599;DHT22;8918;52.092;5.232;2023-06-22T01:31:33;18.70;99.90
17599;DHT22;8918;52.092;5.232;2023-06-22T01:34:03;18.60;99.90
17599;DHT22;8918;52.092;5.232;2023-06-22T01:36:30;18.70;99.90
17599;DHT22;8918;52.092;5.232;2023-06-22T01:38:58;18.60;99.90
17599;DHT22;8918;52.092;5.232;2023-06-22T01:41:28;18.60;99.90
17599;DHT22;8918;52.092;5.232;2023-06-22T01:43:55;18.50;99.90
17599;DHT22;8918;52.092;5.232;2023-06-22T01:46:21;18.50;99.90
17599;DHT22;8918;52.092;5.232;2023-06-22T01:48:48;18.50;99.90
17599;DHT22;8918;52.092;5.232;2023-06-22T01:51:13;18.50;99.90
17599;DHT22;8918;52.092;5.232;2023-06-22T01:53:39;18.50;99.90
17599;DHT22;8918;52.092;5.232;2023-06-22T01:56:05;18.40;99.90
17599;DHT22;8918;52.092;5.232;2023-06-22T01:58:32;18.40;99.90
17599;DHT22;8918;52.092;5.232;2023-06-22T02:03:35;18.40;99.90
17599;DHT22;8918;52.092;5.232;2023-06-22T02:06:05;18.40;99.90
17599;DHT22;8918;52.092;5.232;2023-06-22T02:08:38;18.30;99.90
17599;DHT22;8918;52.092;5.232;2023-06-22T02:11:07;18.20;99.90
17599;DHT22;8918;52.092;5.232;2023-06-22T02:13:33;18.20;99.90
17599;DHT22;8918;52.092;5.232;2023-06-22T02:16:00;18.20;99.90
17599;DHT22;8918;52.092;5.232;2023-06-22T02:18:26;18.20;99.90
17599;DHT22;8918;52.092;5.232;2023-06-22T02:20:51;18.10;99.90
17599;DHT22;8918;52.092;5.232;2023-06-22T02:23:17;18.10;99.90
17599;DHT22;8918;52.092;5.232;2023-06-22T02:25:43;18.10;99.90
17599;DHT22;8918;52.092;5.232;2023-06-22T02:28:09;18.10;99.90
17599;DHT22;8918;52.092;5.232;2023-06-22T02:30:35;18.10;99.90
17599;DHT22;8918;52.092;5.232;2023-06-22T02:33:01;18.00;99.90
17599;DHT22;8918;52.092;5.232;2023-06-22T02:35:28;17.90;99.90
17599;DHT22;8918;52.092;5.232;2023-06-22T02:38:00;18.00;99.90
17599;DHT22;8918;52.092;5.232;2023-06-22T02:40:26;17.90;99.90
17599;DHT22;8918;52.092;5.232;2023-06-22T02:42:52;17.90;99.90
17599;DHT22;8918;52.092;5.232;2023-06-22T02:45:18;17.80;99.90
17599;DHT22;8918;52.092;5.232;2023-06-22T02:47:44;17.80;99.90
17599;DHT22;8918;52.092;5.232;2023-06-22T02:50:09;17.80;99.90
17599;DHT22;8918;52.092;5.232;2023-06-22T02:52:35;17.80;99.90
17599;DHT22;8918;52.092;5.232;2023-06-22T02:55:01;17.80;99.90
17599;DHT22;8918;52.092;5.232;2023-06-22T02:57:26;17.80;99.90
17599;DHT22;8918;52.092;5.232;2023-06-22T02:59:52;17.70;99.90
17599;DHT22;8918;52.092;5.232;2023-06-22T03:02:18;17.80;99.90
17599;DHT22;8918;52.092;5.232;2023-06-22T03:04:46;17.80;99.90
17599;DHT22;8918;52.092;5.232;2023-06-22T03:07:15;17.80;99.90
17599;DHT22;8918;52.092;5.232;2023-06-22T03:09:40;17.70;99.90
17599;DHT22;8918;52.092;5.232;2023-06-22T03:12:08;17.70;99.90
17599;DHT22;8918;52.092;5.232;2023-06-22T03:14:33;17.70;99.90
17599;DHT22;8918;52.092;5.232;2023-06-22T03:16:59;17.70;99.90
17599;DHT22;8918;52.092;5.232;2023-06-22T03:19:28;17.70;99.90
17599;DHT22;8918;52.092;5.232;2023-06-22T03:21:55;17.70;99.90
17599;DHT22;8918;52.092;5.232;2023-06-22T03:24:20;17.60;99.90
17599;DHT22;8918;52.092;5.232;2023-06-22T03:26:46;17.70;99.90
17599;DHT22;8918;52.092;5.232;2023-06-22T03:29:12;17.70;99.90
17599;DHT22;8918;52.092;5.232;2023-06-22T03:31:38;17.80;99.90
17599;DHT22;8918;52.092;5.232;2023-06-22T03:34:03;17.90;99.90
17599;DHT22;8918;52.092;5.232;2023-06-22T03:36:29;18.00;99.90
17599;DHT22;8918;52.092;5.232;2023-06-22T03:38:55;18.00;99.90
17599;DHT22;8918;52.092;5.232;2023-06-22T03:41:20;18.00;99.90
17599;DHT22;8918;52.092;5.232;2023-06-22T03:43:46;18.00;99.90
17599;DHT22;8918;52.092;5.232;2023-06-22T03:46:11;18.00;99.90
17599;DHT22;8918;52.092;5.232;2023-06-22T03:48:38;18.00;99.90
17599;DHT22;8918;52.092;5.232;2023-06-22T03:51:03;17.90;99.90
17599;DHT22;8918;52.092;5.232;2023-06-22T03:53:29;17.90;99.90
17599;DHT22;8918;52.092;5.232;2023-06-22T03:55:55;17.80;99.90
17599;DHT22;8918;52.092;5.232;2023-06-22T03:58:21;17.70;99.90
17599;DHT22;8918;52.092;5.232;2023-06-22T04:00:48;17.70;99.90
17599;DHT22;8918;52.092;5.232;2023-06-22T04:03:14;17.60;99.90
17599;DHT22;8918;52.092;5.232;2023-06-22T04:05:40;17.60;99.90
17599;DHT22;8918;52.092;5.232;2023-06-22T04:08:06;17.60;99.90
17599;DHT22;8918;52.092;5.232;2023-06-22T04:10:33;17.60;99.90
17599;DHT22;8918;52.092;5.232;2023-06-22T04:12:58;17.60;99.90
17599;DHT22;8918;52.092;5.232;2023-06-22T04:15:24;17.60;99.90
17599;DHT22;8918;52.092;5.232;2023-06-22T04:17:49;17.60;99.90
17599;DHT22;8918;52.092;5.232;2023-06-22T04:20:15;17.60;99.90
17599;DHT22;8918;52.092;5.232;2023-06-22T04:22:40;17.50;99.90
17599;DHT22;8918;52.092;5.232;2023-06-22T04:25:06;17.60;99.90
17599;DHT22;8918;52.092;5.232;2023-06-22T04:27:35;17.60;99.90
17599;DHT22;8918;52.092;5.232;2023-06-22T04:30:03;17.60;99.90
17599;DHT22;8918;52.092;5.232;2023-06-22T04:32:29;17.60;99.90
17599;DHT22;8918;52.092;5.232;2023-06-22T04:34:55;17.60;99.90
17599;DHT22;8918;52.092;5.232;2023-06-22T04:37:20;17.70;99.90
17599;DHT22;8918;52.092;5.232;2023-06-22T04:39:49;17.70;99.90
17599;DHT22;8918;52.092;5.232;2023-06-22T04:42:15;17.80;99.90
17599;DHT22;8918;52.092;5.232;2023-06-22T04:44:41;17.80;99.90
17599;DHT22;8918;52.092;5.232;2023-06-22T04:47:08;17.90;99.90
17599;DHT22;8918;52.092;5.232;2023-06-22T04:49:36;17.90;99.90
17599;DHT22;8918;52.092;5.232;2023-06-22T04:52:03;18.00;99.90
17599;DHT22;8918;52.092;5.232;2023-06-22T04:54:29;18.00;99.90
17599;DHT22;8918;52.092;5.232;2023-06-22T04:56:54;18.00;99.90
17599;DHT22;8918;52.092;5.232;2023-06-22T04:59:28;18.10;99.90
17599;DHT22;8918;52.092;5.232;2023-06-22T05:02:01;18.10;99.90
17599;DHT22;8918;52.092;5.232;2023-06-22T05:04:28;18.20;99.90
17599;DHT22;8918;52.092;5.232;2023-06-22T05:06:57;18.20;99.90
17599;DHT22;8918;52.092;5.232;2023-06-22T05:09:22;18.30;99.90
17599;DHT22;8918;52.092;5.232;2023-06-22T05:11:49;18.30;99.90
17599;DHT22;8918;52.092;5.232;2023-06-22T05:14:14;18.30;99.90
17599;DHT22;8918;52.092;5.232;2023-06-22T05:16:41;18.30;99.90
17599;DHT22;8918;52.092;5.232;2023-06-22T05:19:07;18.30;99.90
17599;DHT22;8918;52.092;5.232;2023-06-22T05:21:33;18.30;99.90
17599;DHT22;8918;52.092;5.232;2023-06-22T05:23:59;18.40;99.90
17599;DHT22;8918;52.092;5.232;2023-06-22T05:26:32;18.40;99.90
17599;DHT22;8918;52.092;5.232;2023-06-22T05:28:59;18.40;99.90
17599;DHT22;8918;52.092;5.232;2023-06-22T05:31:26;18.50;99.90
17599;DHT22;8918;52.092;5.232;2023-06-22T05:33:52;18.60;99.90
17599;DHT22;8918;52.092;5.232;2023-06-22T05:36:19;18.60;99.90
17599;DHT22;8918;52.092;5.232;2023-06-22T05:38:51;18.70;99.90
17599;DHT22;8918;52.092;5.232;2023-06-22T05:41:16;18.70;99.90
17599;DHT22;8918;52.092;5.232;2023-06-22T05:43:42;18.70;99.90
17599;DHT22;8918;52.092;5.232;2023-06-22T05:46:08;18.80;99.90
17599;DHT22;8918;52.092;5.232;2023-06-22T05:48:33;18.80;99.90
17599;DHT22;8918;52.092;5.232;2023-06-22T05:50:59;18.80;99.90
17599;DHT22;8918;52.092;5.232;2023-06-22T05:53:24;18.80;99.90
17599;DHT22;8918;52.092;5.232;2023-06-22T05:55:50;18.90;99.90
17599;DHT22;8918;52.092;5.232;2023-06-22T05:58:16;19.00;99.90
17599;DHT22;8918;52.092;5.232;2023-06-22T06:00:42;19.00;99.90
17599;DHT22;8918;52.092;5.232;2023-06-22T06:03:09;19.10;99.90
17599;DHT22;8918;52.092;5.232;2023-06-22T06:05:36;19.10;99.90
17599;DHT22;8918;52.092;5.232;2023-06-22T06:08:04;19.20;99.90
17599;DHT22;8918;52.092;5.232;2023-06-22T06:10:31;19.20;99.90
17599;DHT22;8918;52.092;5.232;2023-06-22T06:12:57;19.30;99.90
17599;DHT22;8918;52.092;5.232;2023-06-22T06:15:22;19.40;99.90
17599;DHT22;8918;52.092;5.232;2023-06-22T06:17:52;19.50;99.90
17599;DHT22;8918;52.092;5.232;2023-06-22T06:22:45;19.70;99.90
17599;DHT22;8918;52.092;5.232;2023-06-22T06:25:12;19.80;99.90
17599;DHT22;8918;52.092;5.232;2023-06-22T06:27:45;19.80;99.90
17599;DHT22;8918;52.092;5.232;2023-06-22T06:30:12;20.00;99.90
17599;DHT22;8918;52.092;5.232;2023-06-22T06:32:38;20.10;99.90
17599;DHT22;8918;52.092;5.232;2023-06-22T06:35:07;20.20;99.90
17599;DHT22;8918;52.092;5.232;2023-06-22T06:37:36;20.30;99.90
17599;DHT22;8918;52.092;5.232;2023-06-22T06:40:03;20.40;99.90
17599;DHT22;8918;52.092;5.232;2023-06-22T06:42:30;20.50;99.90
17599;DHT22;8918;52.092;5.232;2023-06-22T06:44:56;20.50;99.90
17599;DHT22;8918;52.092;5.232;2023-06-22T06:47:22;20.60;99.90
17599;DHT22;8918;52.092;5.232;2023-06-22T06:49:48;20.70;99.90
17599;DHT22;8918;52.092;5.232;2023-06-22T06:52:13;20.80;99.90
17599;DHT22;8918;52.092;5.232;2023-06-22T06:54:39;20.90;99.90
17599;DHT22;8918;52.092;5.232;2023-06-22T06:57:04;21.00;99.90
17599;DHT22;8918;52.092;5.232;2023-06-22T06:59:30;21.10;99.90
17599;DHT22;8918;52.092;5.232;2023-06-22T07:01:56;21.10;99.90
17599;DHT22;8918;52.092;5.232;2023-06-22T07:04:21;21.20;99.90
17599;DHT22;8918;52.092;5.232;2023-06-22T07:06:47;21.20;99.90
17599;DHT22;8918;52.092;5.232;2023-06-22T07:09:12;21.30;99.90
17599;DHT22;8918;52.092;5.232;2023-06-22T07:11:38;21.40;99.90
17599;DHT22;8918;52.092;5.232;2023-06-22T07:14:04;21.40;99.90
17599;DHT22;8918;52.092;5.232;2023-06-22T07:16:30;21.40;99.90
17599;DHT22;8918;52.092;5.232;2023-06-22T07:18:56;21.50;99.90
17599;DHT22;8918;52.092;5.232;2023-06-22T07:21:22;21.60;99.90
17599;DHT22;8918;52.092;5.232;2023-06-22T07:23:48;21.60;99.90
17599;DHT22;8918;52.092;5.232;2023-06-22T07:26:13;21.70;99.90
17599;DHT22;8918;52.092;5.232;2023-06-22T07:28:39;21.80;99.90
17599;DHT22;8918;52.092;5.232;2023-06-22T07:31:06;21.90;99.90
17599;DHT22;8918;52.092;5.232;2023-06-22T07:33:31;21.90;99.90
17599;DHT22;8918;52.092;5.232;2023-06-22T07:35:57;22.00;99.90
17599;DHT22;8918;52.092;5.232;2023-06-22T07:38:23;22.10;99.90
17599;DHT22;8918;52.092;5.232;2023-06-22T07:40:49;22.20;99.90
17599;DHT22;8918;52.092;5.232;2023-06-22T07:43:16;22.20;99.90
17599;DHT22;8918;52.092;5.232;2023-06-22T07:45:48;22.30;99.90
17599;DHT22;8918;52.092;5.232;2023-06-22T07:48:19;22.40;99.90
17599;DHT22;8918;52.092;5.232;2023-06-22T07:50:45;22.40;99.90
17599;DHT22;8918;52.092;5.232;2023-06-22T07:53:10;22.40;99.90
17599;DHT22;8918;52.092;5.232;2023-06-22T07:55:36;22.50;99.90
17599;DHT22;8918;52.092;5.232;2023-06-22T07:58:02;22.50;99.90
17599;DHT22;8918;52.092;5.232;2023-06-22T08:00:27;22.60;99.90
17599;DHT22;8918;52.092;5.232;2023-06-22T08:02:53;22.60;99.90
17599;DHT22;8918;52.092;5.232;2023-06-22T08:05:19;22.60;99.90
17599;DHT22;8918;52.092;5.232;2023-06-22T08:07:44;22.70;99.90
17599;DHT22;8918;52.092;5.232;2023-06-22T08:10:11;22.80;99.90
17599;DHT22;8918;52.092;5.232;2023-06-22T08:12:38;23.00;99.90
17599;DHT22;8918;52.092;5.232;2023-06-22T08:15:04;23.00;99.90
17599;DHT22;8918;52.092;5.232;2023-06-22T08:17:30;23.20;99.90
17599;DHT22;8918;52.092;5.232;2023-06-22T08:19:56;23.30;99.90
17599;DHT22;8918;52.092;5.232;2023-06-22T08:22:22;23.30;99.90
17599;DHT22;8918;52.092;5.232;2023-06-22T08:24:48;23.30;99.90
17599;DHT22;8918;52.092;5.232;2023-06-22T08:27:13;23.40;99.90
17599;DHT22;8918;52.092;5.232;2023-06-22T08:29:40;23.50;99.90
17599;DHT22;8918;52.092;5.232;2023-06-22T08:32:09;23.60;99.90
17599;DHT22;8918;52.092;5.232;2023-06-22T08:34:35;23.80;99.90
17599;DHT22;8918;52.092;5.232;2023-06-22T08:37:01;23.90;99.90
17599;DHT22;8918;52.092;5.232;2023-06-22T08:39:27;24.00;99.90
17599;DHT22;8918;52.092;5.232;2023-06-22T08:41:53;24.00;99.90
17599;DHT22;8918;52.092;5.232;2023-06-22T08:44:19;24.00;99.90
17599;DHT22;8918;52.092;5.232;2023-06-22T08:46:45;24.00;99.90
17599;DHT22;8918;52.092;5.232;2023-06-22T08:49:11;24.10;99.90
17599;DHT22;8918;52.092;5.232;2023-06-22T08:51:36;24.10;99.90
17599;DHT22;8918;52.092;5.232;2023-06-22T08:54:02;24.10;99.90
17599;DHT22;8918;52.092;5.232;2023-06-22T08:56:28;24.20;99.90
17599;DHT22;8918;52.092;5.232;2023-06-22T08:58:53;24.20;99.90
17599;DHT22;8918;52.092;5.232;2023-06-22T09:01:19;24.20;99.90
17599;DHT22;8918;52.092;5.232;2023-06-22T09:03:45;24.20;99.90
17599;DHT22;8918;52.092;5.232;2023-06-22T09:06:19;24.20;99.90
17599;DHT22;8918;52.092;5.232;2023-06-22T09:08:45;24.20;99.90
17599;DHT22;8918;52.092;5.232;2023-06-22T09:11:12;24.20;99.90
17599;DHT22;8918;52.092;5.232;2023-06-22T09:13:38;24.20;99.90
17599;DHT22;8918;52.092;5.232;2023-06-22T09:16:03;24.30;99.90
17599;DHT22;8918;52.092;5.232;2023-06-22T09:18:29;24.30;99.90
17599;DHT22;8918;52.092;5.232;2023-06-22T09:20:55;24.30;99.90
17599;DHT22;8918;52.092;5.232;2023-06-22T09:23:20;24.40;99.90
17599;DHT22;8918;52.092;5.232;2023-06-22T09:25:46;24.40;99.90
17599;DHT22;8918;52.092;5.232;2023-06-22T09:28:13;24.30;99.90
17599;DHT22;8918;52.092;5.232;2023-06-22T09:30:39;24.40;99.90
17599;DHT22;8918;52.092;5.232;2023-06-22T09:33:04;24.30;99.90
17599;DHT22;8918;52.092;5.232;2023-06-22T09:35:30;24.30;99.90
17599;DHT22;8918;52.092;5.232;2023-06-22T09:37:56;24.30;99.90
17599;DHT22;8918;52.092;5.232;2023-06-22T09:40:22;24.30;99.90
17599;DHT22;8918;52.092;5.232;2023-06-22T09:42:47;24.40;99.90
17599;DHT22;8918;52.092;5.232;2023-06-22T09:45:13;24.40;99.90
17599;DHT22;8918;52.092;5.232;2023-06-22T09:47:39;24.50;99.90
17599;DHT22;8918;52.092;5.232;2023-06-22T09:50:05;24.50;99.90
17599;DHT22;8918;52.092;5.232;2023-06-22T09:52:31;24.50;99.90
17599;DHT22;8918;52.092;5.232;2023-06-22T09:54:57;24.50;99.90
17599;DHT22;8918;52.092;5.232;2023-06-22T09:57:23;24.50;99.90
17599;DHT22;8918;52.092;5.232;2023-06-22T09:59:48;24.50;99.90
17599;DHT22;8918;52.092;5.232;2023-06-22T10:02:14;24.50;99.90
17599;DHT22;8918;52.092;5.232;2023-06-22T10:04:39;24.40;99.90
17599;DHT22;8918;52.092;5.232;2023-06-22T10:07:05;24.50;99.90
17599;DHT22;8918;52.092;5.232;2023-06-22T10:09:31;24.40;99.90
17599;DHT22;8918;52.092;5.232;2023-06-22T10:11:57;24.40;99.90
17599;DHT22;8918;52.092;5.232;2023-06-22T10:14:23;24.40;99.90
17599;DHT22;8918;52.092;5.232;2023-06-22T10:16:51;24.30;99.90
17599;DHT22;8918;52.092;5.232;2023-06-22T10:19:16;24.40;99.90
17599;DHT22;8918;52.092;5.232;2023-06-22T10:21:42;24.30;99.90
17599;DHT22;8918;52.092;5.232;2023-06-22T10:24:07;24.30;99.90
17599;DHT22;8918;52.092;5.232;2023-06-22T10:26:34;24.20;99.90
17599;DHT22;8918;52.092;5.232;2023-06-22T10:29:01;24.20;99.90
17599;DHT22;8918;52.092;5.232;2023-06-22T10:31:27;24.10;99.90
17599;DHT22;8918;52.092;5.232;2023-06-22T10:33:54;24.10;99.90
17599;DHT22;8918;52.092;5.232;2023-06-22T10:36:19;24.00;99.90
17599;DHT22;8918;52.092;5.232;2023-06-22T10:38:45;24.00;99.90
17599;DHT22;8918;52.092;5.232;2023-06-22T10:41:12;24.00;99.90
17599;DHT22;8918;52.092;5.232;2023-06-22T10:43:38;24.00;99.90
17599;DHT22;8918;52.092;5.232;2023-06-22T10:46:03;24.00;99.90
17599;DHT22;8918;52.092;5.232;2023-06-22T10:48:29;24.00;99.90
17599;DHT22;8918;52.092;5.232;2023-06-22T10:50:55;24.00;99.90
17599;DHT22;8918;52.092;5.232;2023-06-22T10:53:20;23.90;99.90
17599;DHT22;8918;52.092;5.232;2023-06-22T10:55:47;23.90;99.90
17599;DHT22;8918;52.092;5.232;2023-06-22T10:58:12;23.90;99.90
17599;DHT22;8918;52.092;5.232;2023-06-22T11:00:38;24.00;99.90
17599;DHT22;8918;52.092;5.232;2023-06-22T11:03:04;24.00;99.90
17599;DHT22;8918;52.092;5.232;2023-06-22T11:05:29;23.90;99.90
17599;DHT22;8918;52.092;5.232;2023-06-22T11:07:55;23.90;99.90
17599;DHT22;8918;52.092;5.232;2023-06-22T11:10:20;23.90;99.90
17599;DHT22;8918;52.092;5.232;2023-06-22T11:12:46;23.90;99.90
17599;DHT22;8918;52.092;5.232;2023-06-22T11:15:12;23.90;99.90
17599;DHT22;8918;52.092;5.232;2023-06-22T11:17:37;23.90;99.90
17599;DHT22;8918;52.092;5.232;2023-06-22T11:20:03;23.90;99.90
17599;DHT22;8918;52.092;5.232;2023-06-22T11:22:42;23.90;99.90
17599;DHT22;8918;52.092;5.232;2023-06-22T11:25:09;23.90;99.90
17599;DHT22;8918;52.092;5.232;2023-06-22T11:27:37;23.90;99.90
17599;DHT22;8918;52.092;5.232;2023-06-22T11:30:02;23.80;99.90
17599;DHT22;8918;52.092;5.232;2023-06-22T11:32:28;23.80;99.90
17599;DHT22;8918;52.092;5.232;2023-06-22T11:34:54;23.80;99.90
17599;DHT22;8918;52.092;5.232;2023-06-22T11:37:19;23.90;99.90
17599;DHT22;8918;52.092;5.232;2023-06-22T11:39:45;23.90;99.90
17599;DHT22;8918;52.092;5.232;2023-06-22T11:42:11;23.90;99.90
17599;DHT22;8918;52.092;5.232;2023-06-22T11:44:36;23.90;99.90
17599;DHT22;8918;52.092;5.232;2023-06-22T11:47:02;23.90;99.90
17599;DHT22;8918;52.092;5.232;2023-06-22T11:49:30;24.00;99.90
17599;DHT22;8918;52.092;5.232;2023-06-22T11:51:56;24.00;99.90
17599;DHT22;8918;52.092;5.232;2023-06-22T11:54:21;24.00;99.90
17599;DHT22;8918;52.092;5.232;2023-06-22T11:56:47;24.00;99.90
17599;DHT22;8918;52.092;5.232;2023-06-22T11:59:12;24.00;99.90
17599;DHT22;8918;52.092;5.232;2023-06-22T12:01:38;24.10;99.90
17599;DHT22;8918;52.092;5.232;2023-06-22T12:04:04;24.10;99.90
17599;DHT22;8918;52.092;5.232;2023-06-22T12:06:32;24.10;99.90
17599;DHT22;8918;52.092;5.232;2023-06-22T12:08:58;24.20;99.90
17599;DHT22;8918;52.092;5.232;2023-06-22T12:11:23;24.20;99.90
17599;DHT22;8918;52.092;5.232;2023-06-22T12:13:49;24.30;99.90
17599;DHT22;8918;52.092;5.232;2023-06-22T12:16:15;24.30;99.90
17599;DHT22;8918;52.092;5.232;2023-06-22T12:18:40;24.30;99.90
17599;DHT22;8918;52.092;5.232;2023-06-22T12:21:06;24.30;99.90
17599;DHT22;8918;52.092;5.232;2023-06-22T12:23:32;24.30;99.90
17599;DHT22;8918;52.092;5.232;2023-06-22T12:25:57;24.30;99.90
17599;DHT22;8918;52.092;5.232;2023-06-22T12:28:24;24.30;99.90
17599;DHT22;8918;52.092;5.232;2023-06-22T12:30:50;24.30;99.90
17599;DHT22;8918;52.092;5.232;2023-06-22T12:33:16;24.30;99.90
17599;DHT22;8918;52.092;5.232;2023-06-22T12:35:41;24.30;99.90
17599;DHT22;8918;52.092;5.232;2023-06-22T12:38:07;24.20;99.90
17599;DHT22;8918;52.092;5.232;2023-06-22T12:40:33;24.20;99.90
17599;DHT22;8918;52.092;5.232;2023-06-22T12:42:59;24.20;99.90
17599;DHT22;8918;52.092;5.232;2023-06-22T12:45:24;24.10;99.90
17599;DHT22;8918;52.092;5.232;2023-06-22T12:47:54;24.10;99.90
17599;DHT22;8918;52.092;5.232;2023-06-22T12:50:20;24.10;99.90
17599;DHT22;8918;52.092;5.232;2023-06-22T12:52:45;24.00;99.90
17599;DHT22;8918;52.092;5.232;2023-06-22T12:55:11;24.00;99.90
17599;DHT22;8918;52.092;5.232;2023-06-22T12:57:36;23.90;99.90
17599;DHT22;8918;52.092;5.232;2023-06-22T13:00:02;23.90;99.90
17599;DHT22;8918;52.092;5.232;2023-06-22T13:02:30;23.70;99.90
17599;DHT22;8918;52.092;5.232;2023-06-22T13:04:55;23.70;99.90
17599;DHT22;8918;52.092;5.232;2023-06-22T13:07:21;23.60;99.90
17599;DHT22;8918;52.092;5.232;2023-06-22T13:09:46;23.50;99.90
17599;DHT22;8918;52.092;5.232;2023-06-22T13:12:16;23.40;99.90
17599;DHT22;8918;52.092;5.232;2023-06-22T13:14:42;23.40;99.90
17599;DHT22;8918;52.092;5.232;2023-06-22T13:17:08;23.30;99.90
17599;DHT22;8918;52.092;5.232;2023-06-22T13:19:34;23.20;99.90
17599;DHT22;8918;52.092;5.232;2023-06-22T13:22:00;23.10;99.90
17599;DHT22;8918;52.092;5.232;2023-06-22T13:24:26;23.00;99.90
17599;DHT22;8918;52.092;5.232;2023-06-22T13:26:51;23.00;99.90
17599;DHT22;8918;52.092;5.232;2023-06-22T13:29:17;22.90;99.90
17599;DHT22;8918;52.092;5.232;2023-06-22T13:31:42;22.90;99.90
17599;DHT22;8918;52.092;5.232;2023-06-22T13:34:08;22.80;99.90
17599;DHT22;8918;52.092;5.232;2023-06-22T13:36:33;22.70;99.90
17599;DHT22;8918;52.092;5.232;2023-06-22T13:38:59;22.60;99.90
17599;DHT22;8918;52.092;5.232;2023-06-22T13:41:25;22.50;99.90
17599;DHT22;8918;52.092;5.232;2023-06-22T13:43:51;22.50;99.90
17599;DHT22;8918;52.092;5.232;2023-06-22T13:46:16;22.40;99.90
17599;DHT22;8918;52.092;5.232;2023-06-22T13:48:42;22.40;99.90
17599;DHT22;8918;52.092;5.232;2023-06-22T13:51:07;22.30;99.90
17599;DHT22;8918;52.092;5.232;2023-06-22T13:53:33;22.20;99.90
17599;DHT22;8918;52.092;5.232;2023-06-22T13:55:59;22.10;99.90
17599;DHT22;8918;52.092;5.232;2023-06-22T13:58:24;22.00;99.90
17599;DHT22;8918;52.092;5.232;2023-06-22T14:00:50;22.00;99.90
17599;DHT22;8918;52.092;5.232;2023-06-22T14:03:15;21.90;99.90
17599;DHT22;8918;52.092;5.232;2023-06-22T14:05:42;21.90;99.90
17599;DHT22;8918;52.092;5.232;2023-06-22T14:08:08;21.90;99.90
17599;DHT22;8918;52.092;5.232;2023-06-22T14:10:34;21.80;99.90
17599;DHT22;8918;52.092;5.232;2023-06-22T14:13:00;21.80;99.90
17599;DHT22;8918;52.092;5.232;2023-06-22T14:15:26;21.70;99.90
17599;DHT22;8918;52.092;5.232;2023-06-22T14:17:52;21.70;99.90
17599;DHT22;8918;52.092;5.232;2023-06-22T14:20:18;21.70;99.90
17599;DHT22;8918;52.092;5.232;2023-06-22T14:22:43;21.70;99.90
17599;DHT22;8918;52.092;5.232;2023-06-22T14:25:09;21.70;99.90
17599;DHT22;8918;52.092;5.232;2023-06-22T14:27:35;21.60;99.90
17599;DHT22;8918;52.092;5.232;2023-06-22T14:30:00;21.60;99.90
17599;DHT22;8918;52.092;5.232;2023-06-22T14:32:27;21.60;99.90
17599;DHT22;8918;52.092;5.232;2023-06-22T14:34:55;21.50;99.90
17599;DHT22;8918;52.092;5.232;2023-06-22T14:37:20;21.50;99.90
17599;DHT22;8918;52.092;5.232;2023-06-22T14:39:46;21.50;99.90
17599;DHT22;8918;52.092;5.232;2023-06-22T14:42:12;21.40;99.90
17599;DHT22;8918;52.092;5.232;2023-06-22T14:44:37;21.30;99.90
17599;DHT22;8918;52.092;5.232;2023-06-22T14:47:03;21.30;99.90
17599;DHT22;8918;52.092;5.232;2023-06-22T14:49:29;21.30;99.90
17599;DHT22;8918;52.092;5.232;2023-06-22T14:51:54;21.30;99.90
17599;DHT22;8918;52.092;5.232;2023-06-22T14:54:20;21.30;99.90
17599;DHT22;8918;52.092;5.232;2023-06-22T14:56:46;21.20;99.90
17599;DHT22;8918;52.092;5.232;2023-06-22T14:59:12;21.20;99.90
17599;DHT22;8918;52.092;5.232;2023-06-22T15:01:38;21.20;99.90
17599;DHT22;8918;52.092;5.232;2023-06-22T15:04:03;21.20;99.90
17599;DHT22;8918;52.092;5.232;2023-06-22T15:06:29;21.10;99.90
17599;DHT22;8918;52.092;5.232;2023-06-22T15:08:55;21.10;99.90
17599;DHT22;8918;52.092;5.232;2023-06-22T15:11:20;21.10;99.90
17599;DHT22;8918;52.092;5.232;2023-06-22T15:13:46;21.10;99.90
17599;DHT22;8918;52.092;5.232;2023-06-22T15:16:12;21.00;99.90
17599;DHT22;8918;52.092;5.232;2023-06-22T15:18:38;21.00;99.90
17599;DHT22;8918;52.092;5.232;2023-06-22T15:21:04;21.00;99.90
17599;DHT22;8918;52.092;5.232;2023-06-22T15:23:30;21.00;99.90
17599;DHT22;8918;52.092;5.232;2023-06-22T15:25:57;20.90;99.90
17599;DHT22;8918;52.092;5.232;2023-06-22T15:28:22;20.90;99.90
17599;DHT22;8918;52.092;5.232;2023-06-22T15:30:49;20.90;99.90
17599;DHT22;8918;52.092;5.232;2023-06-22T15:33:15;20.80;99.90
17599;DHT22;8918;52.092;5.232;2023-06-22T15:35:40;20.80;99.90
17599;DHT22;8918;52.092;5.232;2023-06-22T15:38:06;20.80;99.90
17599;DHT22;8918;52.092;5.232;2023-06-22T15:40:32;20.80;99.90
17599;DHT22;8918;52.092;5.232;2023-06-22T15:42:57;20.80;99.90
17599;DHT22;8918;52.092;5.232;2023-06-22T15:45:23;20.80;99.90
17599;DHT22;8918;52.092;5.232;2023-06-22T15:47:48;20.80;99.90
17599;DHT22;8918;52.092;5.232;2023-06-22T15:50:14;20.70;99.90
17599;DHT22;8918;52.092;5.232;2023-06-22T15:52:43;20.70;99.90
17599;DHT22;8918;52.092;5.232;2023-06-22T15:55:13;20.70;99.90
17599;DHT22;8918;52.092;5.232;2023-06-22T15:57:39;20.60;99.90